createdAt,value
2022-10-13T00:01:17.963Z,56.03
2022-10-13T00:03:47.257Z,53.75
2022-10-13T00:06:23.815Z,53.00
2022-10-13T00:08:51.717Z,52.97
2022-10-13T00:11:22.798Z,53.42
2022-10-13T00:13:52.052Z,53.95
2022-10-13T00:16:21.793Z,54.83
2022-10-13T00:18:50.059Z,53.72
2022-10-13T00:21:22.431Z,53.25
2022-10-13T00:23:51.049Z,51.70
2022-10-13T00:26:23.018Z,52.30
2022-10-13T00:28:52.737Z,54.45
2022-10-13T00:31:25.364Z,51.50
2022-10-13T00:33:53.943Z,51.40
2022-10-13T00:36:23.581Z,53.30
2022-10-13T00:38:52.133Z,50.60
2022-10-13T00:41:20.502Z,53.50
2022-10-13T00:44:00.050Z,52.03
2022-10-13T00:46:33.634Z,50.65
2022-10-13T00:49:14.281Z,51.67
2022-10-13T00:51:49.527Z,52.83
2022-10-13T00:54:24.722Z,51.72
2022-10-13T00:56:54.007Z,53.08
2022-10-13T00:59:27.304Z,50.50
2022-10-13T01:01:57.316Z,48.85
2022-10-13T01:04:30.773Z,49.38
2022-10-13T01:06:59.466Z,35.88
2022-10-13T01:09:34.856Z,46.13
2022-10-13T01:12:42.282Z,45.63
2022-10-13T01:15:34.233Z,46.25
2022-10-13T01:18:30.313Z,46.75
2022-10-13T01:21:18.709Z,49.38
2022-10-13T01:24:28.091Z,47.05
2022-10-13T01:27:17.822Z,50.63
2022-10-13T01:30:12.821Z,47.28
2022-10-13T01:32:50.742Z,48.05
2022-10-13T01:35:50.441Z,49.92
2022-10-13T01:39:00.122Z,46.53
2022-10-13T01:41:37.662Z,46.03
2022-10-13T01:44:17.573Z,46.80
2022-10-13T01:46:54.882Z,47.13
2022-10-13T01:49:28.240Z,45.83
2022-10-13T01:52:00.159Z,48.17
2022-10-13T01:54:28.122Z,47.55
2022-10-13T01:56:57.517Z,48.70
2022-10-13T01:59:28.589Z,47.53
2022-10-13T02:02:28.777Z,48.30
2022-10-13T02:05:15.635Z,62.55
2022-10-13T02:07:54.375Z,58.75
2022-10-13T02:10:42.286Z,60.25
2022-10-13T02:13:14.568Z,57.50
2022-10-13T02:15:47.479Z,53.72
2022-10-13T02:18:18.525Z,52.90
2022-10-13T02:20:47.175Z,51.67
2022-10-13T02:23:17.015Z,56.63
2022-10-13T02:25:46.756Z,49.70
2022-10-13T02:28:15.311Z,52.42
2022-10-13T02:30:44.799Z,56.20
2022-10-13T02:33:14.375Z,53.05
2022-10-13T02:35:43.308Z,50.95
2022-10-13T02:38:12.912Z,52.08
2022-10-13T02:40:40.844Z,52.35
2022-10-13T02:43:08.520Z,50.13
2022-10-13T02:45:36.337Z,48.78
2022-10-13T02:48:04.480Z,48.50
2022-10-13T02:50:32.242Z,50.95
2022-10-13T02:53:00.116Z,48.55
2022-10-13T02:55:28.117Z,47.97
2022-10-13T02:57:58.936Z,46.55
2022-10-13T03:00:26.891Z,49.28
2022-10-13T03:02:54.852Z,48.50
2022-10-13T03:05:22.596Z,45.85
2022-10-13T03:07:50.303Z,46.00
2022-10-13T03:10:18.387Z,47.60
2022-10-13T03:12:46.086Z,45.78
2022-10-13T03:15:14.091Z,47.97
2022-10-13T03:17:42.034Z,46.70
2022-10-13T03:20:10.372Z,47.33
2022-10-13T03:22:38.091Z,45.33
2022-10-13T03:25:06.830Z,43.42
2022-10-13T03:27:34.706Z,42.33
2022-10-13T03:30:02.899Z,41.45
2022-10-13T03:32:31.825Z,43.10
2022-10-13T03:34:59.589Z,42.00
2022-10-13T03:37:30.638Z,43.40
2022-10-13T03:39:58.580Z,41.53
2022-10-13T03:42:26.293Z,41.05
2022-10-13T03:44:56.552Z,40.83
2022-10-13T03:47:24.775Z,41.15
2022-10-13T03:49:55.195Z,41.47
2022-10-13T03:52:23.755Z,42.20
2022-10-13T03:54:51.851Z,40.60
2022-10-13T03:57:19.613Z,42.92
2022-10-13T03:59:47.422Z,40.20
2022-10-13T04:02:15.315Z,40.13
2022-10-13T04:04:43.290Z,39.85
2022-10-13T04:07:10.983Z,40.13
2022-10-13T04:09:38.970Z,39.97
2022-10-13T04:12:06.690Z,38.13
2022-10-13T04:14:34.736Z,40.45
2022-10-13T04:17:09.117Z,39.92
2022-10-13T04:19:36.971Z,39.38
2022-10-13T04:22:06.367Z,38.92
2022-10-13T04:24:34.509Z,39.53
2022-10-13T04:27:02.268Z,39.58
2022-10-13T04:29:30.060Z,40.40
2022-10-13T04:32:00.177Z,40.72
2022-10-13T04:34:27.894Z,40.97
2022-10-13T04:36:55.652Z,40.25
2022-10-13T04:39:23.605Z,39.80
2022-10-13T04:41:51.963Z,40.67
2022-10-13T04:44:19.981Z,42.58
2022-10-13T04:46:47.853Z,42.97
2022-10-13T04:49:16.428Z,40.10
2022-10-13T04:51:44.525Z,41.50
2022-10-13T04:54:12.188Z,41.47
2022-10-13T04:56:40.054Z,42.30
2022-10-13T04:59:07.820Z,41.45
2022-10-13T05:01:36.202Z,42.28
2022-10-13T05:04:07.466Z,41.38
2022-10-13T05:06:58.900Z,40.65
2022-10-13T05:09:27.871Z,42.03
2022-10-13T05:11:55.556Z,43.80
2022-10-13T05:14:23.589Z,46.20
2022-10-13T05:16:51.577Z,46.38
2022-10-13T05:19:20.296Z,46.40
2022-10-13T05:21:50.616Z,46.20
2022-10-13T05:24:20.726Z,46.38
2022-10-13T05:26:50.434Z,45.88
2022-10-13T05:29:18.962Z,43.50
2022-10-13T05:31:47.057Z,43.55
2022-10-13T05:34:14.791Z,48.58
2022-10-13T05:36:43.101Z,52.28
2022-10-13T05:39:10.916Z,49.28
2022-10-13T05:41:39.530Z,47.72
2022-10-13T05:44:14.224Z,48.13
2022-10-13T05:46:54.487Z,46.92
2022-10-13T05:49:22.296Z,44.80
2022-10-13T05:51:53.704Z,43.33
2022-10-13T05:54:33.775Z,44.17
2022-10-13T05:57:10.517Z,45.40
2022-10-13T05:59:44.403Z,44.58
2022-10-13T06:02:16.055Z,43.42
2022-10-13T06:04:49.109Z,44.15
2022-10-13T06:07:17.706Z,44.90
2022-10-13T06:09:45.766Z,46.08
2022-10-13T06:12:13.705Z,44.88
2022-10-13T06:14:42.890Z,46.58
2022-10-13T06:17:12.596Z,47.80
2022-10-13T06:19:45.438Z,45.55
2022-10-13T06:22:13.182Z,45.67
2022-10-13T06:24:41.031Z,43.80
2022-10-13T06:27:10.830Z,45.78
2022-10-13T06:29:38.848Z,44.45
2022-10-13T06:32:07.281Z,45.40
2022-10-13T06:34:35.306Z,44.70
2022-10-13T06:37:03.017Z,44.35
2022-10-13T06:39:30.936Z,43.13
2022-10-13T06:42:01.733Z,41.15
2022-10-13T06:44:38.809Z,40.50
2022-10-13T06:47:06.650Z,39.92
2022-10-13T06:49:35.078Z,38.80
2022-10-13T06:52:03.229Z,39.72
2022-10-13T06:54:31.408Z,37.53
2022-10-13T06:56:59.610Z,38.92
2022-10-13T06:59:27.883Z,38.45
2022-10-13T07:01:55.761Z,38.70
2022-10-13T07:04:25.899Z,36.80
2022-10-13T07:06:55.787Z,36.58
2022-10-13T07:09:23.722Z,33.90
2022-10-13T07:11:51.446Z,33.60
2022-10-13T07:14:19.890Z,35.28
2022-10-13T07:16:50.413Z,33.80
2022-10-13T07:19:18.296Z,33.50
2022-10-13T07:21:46.229Z,33.95
2022-10-13T07:24:14.841Z,32.58
2022-10-13T07:26:42.753Z,31.63
2022-10-13T07:29:10.870Z,28.25
2022-10-13T07:31:38.641Z,27.13
2022-10-13T07:34:06.801Z,27.58
2022-10-13T07:36:35.685Z,27.40
2022-10-13T07:39:03.881Z,23.55
2022-10-13T07:41:33.444Z,24.23
2022-10-13T07:44:01.725Z,26.05
2022-10-13T07:46:29.907Z,26.20
2022-10-13T07:48:58.191Z,26.70
2022-10-13T07:51:26.155Z,23.15
2022-10-13T07:53:54.369Z,21.42
2022-10-13T07:56:22.063Z,21.58
2022-10-13T07:58:49.921Z,22.85
2022-10-13T08:01:18.027Z,22.67
2022-10-13T08:03:49.940Z,22.50
2022-10-13T08:06:19.263Z,21.55
2022-10-13T08:08:48.013Z,20.92
2022-10-13T08:11:18.120Z,20.42
2022-10-13T08:13:51.193Z,19.15
2022-10-13T08:16:22.042Z,19.63
2022-10-13T08:18:50.494Z,18.02
2022-10-13T08:24:12.834Z,17.20
2022-10-13T08:26:41.541Z,16.73
2022-10-13T08:29:25.034Z,16.00
2022-10-13T08:31:54.130Z,16.42
2022-10-13T08:34:24.430Z,14.88
2022-10-13T08:36:54.833Z,14.80
2022-10-13T08:39:24.698Z,15.20
2022-10-13T08:41:53.205Z,14.57
2022-10-13T08:47:22.044Z,14.15
2022-10-13T08:49:50.405Z,14.48
2022-10-13T08:52:24.764Z,13.48
2022-10-13T08:54:54.902Z,14.85
2022-10-13T08:57:24.432Z,14.80
2022-10-13T08:59:53.536Z,14.05
2022-10-13T09:02:31.260Z,13.50
2022-10-13T09:05:03.946Z,13.00
2022-10-13T09:07:37.253Z,11.50
2022-10-13T09:10:07.435Z,11.15
2022-10-13T09:12:35.242Z,11.45
2022-10-13T09:15:12.413Z,10.38
2022-10-13T09:17:41.799Z,11.30
2022-10-13T09:20:29.550Z,10.25
2022-10-13T09:23:08.128Z,8.82
2022-10-13T09:25:44.574Z,8.60
2022-10-13T09:28:29.871Z,7.45
2022-10-13T09:31:26.177Z,7.55
2022-10-13T09:34:14.531Z,7.47
2022-10-13T09:37:03.426Z,7.53
2022-10-13T09:39:33.904Z,4.97
2022-10-13T09:42:20.836Z,5.55
2022-10-13T09:44:58.907Z,5.50
2022-10-13T09:47:28.723Z,4.60
2022-10-13T09:50:19.014Z,4.22
2022-10-13T09:52:48.300Z,4.18
2022-10-13T09:55:32.221Z,4.57
2022-10-13T09:58:32.316Z,4.93
2022-10-13T10:01:00.746Z,4.55
2022-10-13T10:03:35.621Z,4.43
2022-10-13T10:06:12.384Z,4.75
2022-10-13T10:09:06.582Z,5.18
2022-10-13T10:11:44.161Z,5.88
2022-10-13T10:14:26.271Z,4.55
2022-10-13T10:17:04.129Z,4.70
2022-10-13T10:19:52.190Z,4.93
2022-10-13T10:22:44.321Z,3.80
2022-10-13T10:25:21.037Z,3.67
2022-10-13T10:28:16.729Z,4.05
2022-10-13T10:30:55.398Z,3.83
2022-10-13T10:33:50.068Z,3.72
2022-10-13T10:36:34.642Z,4.15
2022-10-13T10:39:23.605Z,4.05
2022-10-13T10:41:58.588Z,3.58
2022-10-13T10:44:32.282Z,3.50
2022-10-13T10:47:19.687Z,3.97
2022-10-13T10:49:57.372Z,3.90
2022-10-13T10:52:40.425Z,4.60
2022-10-13T10:55:31.682Z,3.78
2022-10-13T10:58:05.335Z,3.90
2022-10-13T11:00:42.008Z,5.35
2022-10-13T11:03:40.862Z,4.97
2022-10-13T11:06:18.312Z,5.32
2022-10-13T11:08:47.768Z,5.40
2022-10-13T11:11:29.263Z,6.50
2022-10-13T11:14:07.275Z,6.45
2022-10-13T11:16:40.805Z,5.20
2022-10-13T11:19:32.436Z,5.50
2022-10-13T11:22:00.572Z,4.40
2022-10-13T11:24:38.894Z,3.67
2022-10-13T11:27:16.245Z,3.15
2022-10-13T11:29:49.057Z,3.63
2022-10-13T11:32:46.488Z,3.75
2022-10-13T11:35:23.217Z,3.25
2022-10-13T11:38:07.613Z,3.33
2022-10-13T11:41:04.176Z,3.70
2022-10-13T11:44:13.452Z,4.28
2022-10-13T11:46:50.942Z,3.15
2022-10-13T11:49:37.604Z,3.22
2022-10-13T11:52:40.989Z,3.58
2022-10-13T11:55:17.737Z,3.55
2022-10-13T11:57:45.836Z,3.10
2022-10-13T12:00:19.112Z,3.38
2022-10-13T12:02:53.369Z,3.63
2022-10-13T12:05:24.790Z,3.42
2022-10-13T12:07:55.789Z,3.22
2022-10-13T12:10:34.574Z,3.28
2022-10-13T12:13:05.101Z,3.58
2022-10-13T12:15:34.020Z,4.00
2022-10-13T12:18:02.769Z,3.83
2022-10-13T12:20:33.128Z,3.80
2022-10-13T12:23:01.300Z,4.13
2022-10-13T12:25:31.269Z,3.92
2022-10-13T12:28:01.187Z,3.63
2022-10-13T12:30:36.369Z,3.45
2022-10-13T12:33:19.397Z,3.30
2022-10-13T12:35:47.391Z,3.50
2022-10-13T12:38:24.622Z,3.72
2022-10-13T12:40:54.432Z,4.15
2022-10-13T12:43:26.661Z,3.85
2022-10-13T12:45:54.681Z,3.38
2022-10-13T12:48:37.076Z,3.45
2022-10-13T12:51:19.961Z,4.00
2022-10-13T12:53:48.798Z,3.63
2022-10-13T12:56:28.408Z,3.22
2022-10-13T12:58:56.844Z,3.25
2022-10-13T13:01:35.255Z,3.75
2022-10-13T13:04:16.352Z,3.63
2022-10-13T13:07:02.049Z,3.70
2022-10-13T13:09:39.032Z,4.18
2022-10-13T13:12:22.904Z,4.15
2022-10-13T13:14:55.003Z,4.53
2022-10-13T13:17:53.293Z,4.65
2022-10-13T13:20:29.533Z,4.50
2022-10-13T13:22:58.173Z,4.47
2022-10-13T13:25:26.543Z,5.45
2022-10-13T13:27:54.381Z,5.00
2022-10-13T13:30:23.952Z,4.68
2022-10-13T13:32:52.288Z,4.65
2022-10-13T13:35:20.011Z,4.70
2022-10-13T13:37:50.557Z,4.60
2022-10-13T13:40:22.003Z,4.50
2022-10-13T13:42:50.073Z,4.53
2022-10-13T13:45:21.144Z,4.70
2022-10-13T13:47:50.532Z,5.03
2022-10-13T13:50:23.121Z,4.93
2022-10-13T13:53:00.104Z,4.50
2022-10-13T13:55:29.808Z,4.43
2022-10-13T13:57:58.294Z,5.28
2022-10-13T14:00:26.291Z,5.32
2022-10-13T14:02:57.575Z,6.05
2022-10-13T14:05:25.861Z,5.35
2022-10-13T14:07:55.977Z,6.15
2022-10-13T14:10:25.272Z,5.80
2022-10-13T14:12:53.432Z,6.00
2022-10-13T14:15:23.410Z,5.50
2022-10-13T14:17:54.456Z,6.32
2022-10-13T14:20:22.706Z,6.03
2022-10-13T14:22:50.647Z,6.30
2022-10-13T14:25:18.679Z,6.47
2022-10-13T14:27:46.678Z,6.30
2022-10-13T14:30:15.247Z,6.85
2022-10-13T14:32:42.995Z,5.70
2022-10-13T14:35:11.342Z,5.82
2022-10-13T14:37:39.638Z,5.80
2022-10-13T14:40:08.093Z,5.32
2022-10-13T14:42:36.045Z,5.32
2022-10-13T14:45:06.659Z,5.35
2022-10-13T14:47:34.617Z,5.25
2022-10-13T14:50:03.016Z,5.90
2022-10-13T14:52:30.792Z,8.10
2022-10-13T14:54:59.059Z,8.00
2022-10-13T14:57:27.002Z,8.02
2022-10-13T14:59:58.038Z,7.43
2022-10-13T15:02:29.977Z,7.18
2022-10-13T15:04:57.997Z,7.15
2022-10-13T15:07:25.948Z,5.75
2022-10-13T15:10:05.077Z,8.15
2022-10-13T15:12:34.277Z,14.88
2022-10-13T15:15:02.532Z,14.80
2022-10-13T15:17:31.282Z,10.98
2022-10-13T15:19:59.478Z,8.00
2022-10-13T15:22:27.277Z,7.70
2022-10-13T15:24:55.092Z,7.35
2022-10-13T15:27:23.316Z,7.75
2022-10-13T15:29:51.123Z,6.50
2022-10-13T15:32:20.419Z,8.90
2022-10-13T15:34:55.854Z,8.35
2022-10-13T15:37:23.608Z,10.57
2022-10-13T15:39:56.843Z,20.42
2022-10-13T15:42:25.386Z,19.65
2022-10-13T15:45:10.375Z,20.45
2022-10-13T15:47:39.601Z,21.77
2022-10-13T15:50:08.819Z,22.75
2022-10-13T15:52:41.129Z,19.23
2022-10-13T15:55:12.329Z,18.80
2022-10-13T15:57:40.352Z,18.83
2022-10-13T16:00:10.749Z,25.17
2022-10-13T16:02:42.562Z,26.33
2022-10-13T16:05:12.913Z,26.98
2022-10-13T16:07:41.679Z,24.88
2022-10-13T16:10:12.421Z,23.02
2022-10-13T16:12:44.401Z,22.17
2022-10-13T16:15:17.811Z,24.10
2022-10-13T16:17:46.453Z,21.65
2022-10-13T16:20:14.827Z,21.63
2022-10-13T16:22:42.803Z,22.60
2022-10-13T16:25:11.883Z,24.42
2022-10-13T16:27:44.034Z,24.88
2022-10-13T16:30:13.283Z,21.42
2022-10-13T16:32:41.322Z,24.30
2022-10-13T16:35:09.458Z,25.48
2022-10-13T16:37:37.479Z,34.70
2022-10-13T16:40:05.603Z,30.98
2022-10-13T16:42:33.520Z,27.60
2022-10-13T16:45:01.395Z,25.27
2022-10-13T16:47:32.025Z,24.45
2022-10-13T16:49:59.857Z,24.48
2022-10-13T16:52:27.789Z,24.88
2022-10-13T16:54:55.545Z,27.10
2022-10-13T16:57:25.551Z,29.13
2022-10-13T16:59:53.321Z,31.52
2022-10-13T17:02:21.177Z,29.40
2022-10-13T17:04:49.413Z,30.48
2022-10-13T17:07:17.179Z,32.75
2022-10-13T17:09:45.186Z,30.58
2022-10-13T17:12:12.983Z,30.08
2022-10-13T17:14:41.433Z,29.98
2022-10-13T17:17:09.197Z,29.92
2022-10-13T17:19:37.136Z,24.67
2022-10-13T17:22:04.852Z,23.80
2022-10-13T17:24:33.297Z,23.92
2022-10-13T17:27:01.077Z,22.92
2022-10-13T17:29:29.454Z,24.00
2022-10-13T17:31:57.270Z,23.50
2022-10-13T17:34:25.291Z,22.65
2022-10-13T17:36:53.050Z,22.70
2022-10-13T17:39:21.089Z,24.17
2022-10-13T17:41:48.895Z,23.40
2022-10-13T17:44:20.646Z,23.60
2022-10-13T17:46:50.075Z,25.00
2022-10-13T17:49:18.413Z,23.73
2022-10-13T17:51:46.591Z,24.60
2022-10-13T17:54:16.650Z,24.30
2022-10-13T17:56:48.718Z,25.42
2022-10-13T17:59:17.864Z,28.17
2022-10-13T18:01:46.526Z,26.92
2022-10-13T18:04:18.502Z,27.15
2022-10-13T18:06:47.209Z,28.05
2022-10-13T18:09:20.570Z,30.23
2022-10-13T18:11:51.006Z,31.33
2022-10-13T18:14:21.907Z,32.72
2022-10-13T18:16:51.649Z,29.80
2022-10-13T18:19:21.300Z,30.08
2022-10-13T18:21:49.540Z,32.28
2022-10-13T18:24:17.323Z,32.55
2022-10-13T18:26:45.639Z,33.92
2022-10-13T18:29:13.908Z,34.10
2022-10-13T18:31:42.439Z,34.35
2022-10-13T18:34:16.032Z,33.08
2022-10-13T18:36:50.344Z,34.35
2022-10-13T18:39:25.778Z,33.45
2022-10-13T18:41:54.675Z,35.13
2022-10-13T18:44:23.553Z,33.95
2022-10-13T18:46:52.988Z,33.45
2022-10-13T18:49:23.894Z,35.20
2022-10-13T18:51:52.166Z,36.05
2022-10-13T18:54:20.566Z,35.63
2022-10-13T18:56:48.566Z,38.22
2022-10-13T18:59:17.974Z,37.75
2022-10-13T19:01:46.232Z,34.92
2022-10-13T19:04:16.743Z,38.00
2022-10-13T19:06:46.421Z,44.92
2022-10-13T19:09:16.025Z,38.55
2022-10-13T19:11:44.039Z,38.90
2022-10-13T19:14:14.306Z,38.30
2022-10-13T19:16:44.144Z,36.55
2022-10-13T19:19:12.751Z,43.15
2022-10-13T19:21:41.855Z,43.70
2022-10-13T19:24:10.018Z,42.80
2022-10-13T19:26:38.042Z,39.67
2022-10-13T19:29:13.100Z,33.00
2022-10-13T19:31:43.154Z,36.42
2022-10-13T19:34:13.160Z,30.27
2022-10-13T19:36:46.498Z,31.20
2022-10-13T19:39:23.398Z,30.15
2022-10-13T19:41:53.040Z,30.92
2022-10-13T19:44:22.273Z,30.27
2022-10-13T19:46:50.768Z,27.55
2022-10-13T19:49:21.036Z,26.23
2022-10-13T19:51:51.518Z,26.08
2022-10-13T19:54:21.690Z,25.88
2022-10-13T19:56:50.743Z,25.15
2022-10-13T19:59:19.793Z,25.02
2022-10-13T20:01:48.258Z,24.65
2022-10-13T20:04:18.534Z,22.85
2022-10-13T20:06:47.569Z,24.20
2022-10-13T20:09:15.808Z,24.48
2022-10-13T20:11:46.496Z,24.98
2022-10-13T20:14:15.408Z,23.48
2022-10-13T20:16:43.625Z,23.23
2022-10-13T20:19:14.107Z,23.45
2022-10-13T20:21:43.456Z,26.83
2022-10-13T20:24:13.120Z,25.15
2022-10-13T20:26:41.171Z,25.15
2022-10-13T20:29:09.275Z,24.45
2022-10-13T20:31:37.263Z,26.52
2022-10-13T20:34:05.088Z,25.65
2022-10-13T20:36:38.266Z,26.73
2022-10-13T20:39:07.010Z,27.73
2022-10-13T20:41:35.343Z,26.75
2022-10-13T20:44:03.448Z,26.42
2022-10-13T20:46:34.504Z,28.00
2022-10-13T20:49:10.841Z,29.23
2022-10-13T20:51:39.794Z,28.85
2022-10-13T20:54:09.970Z,29.27
2022-10-13T20:56:38.209Z,26.98
2022-10-13T20:59:08.816Z,26.88
2022-10-13T21:01:37.797Z,26.25
2022-10-13T21:04:06.426Z,26.17
2022-10-13T21:06:35.851Z,25.13
2022-10-13T21:09:05.754Z,24.65
2022-10-13T21:11:35.447Z,27.52
2022-10-13T21:14:06.851Z,24.95
2022-10-13T21:16:37.956Z,26.27
2022-10-13T21:19:10.211Z,24.10
2022-10-13T21:21:39.012Z,25.77
2022-10-13T21:24:08.424Z,25.60
2022-10-13T21:26:37.261Z,22.15
2022-10-13T21:29:06.818Z,20.95
2022-10-13T21:31:35.636Z,20.05
2022-10-13T21:34:03.598Z,19.20
2022-10-13T21:36:34.029Z,20.40
2022-10-13T21:39:06.594Z,19.27
2022-10-13T21:41:37.156Z,19.13
2022-10-13T21:44:05.196Z,19.27
2022-10-13T21:46:35.130Z,18.73
2022-10-13T21:49:05.724Z,19.00
2022-10-13T21:51:36.563Z,19.65
2022-10-13T21:54:09.945Z,19.30
2022-10-13T21:56:38.824Z,19.30
2022-10-13T21:59:07.340Z,18.00
2022-10-13T22:01:35.532Z,19.02
2022-10-13T22:04:12.809Z,18.40
2022-10-13T22:06:40.769Z,18.77
2022-10-13T22:09:08.501Z,17.50
2022-10-13T22:11:38.201Z,19.10
2022-10-13T22:14:13.002Z,18.33
2022-10-13T22:16:44.743Z,18.73
2022-10-13T22:19:13.408Z,18.65
2022-10-13T22:21:44.068Z,17.27
2022-10-13T22:24:17.638Z,18.55
2022-10-13T22:26:47.203Z,17.90
2022-10-13T22:29:19.426Z,18.17
2022-10-13T22:31:48.805Z,17.92
2022-10-13T22:34:17.693Z,19.27
2022-10-13T22:36:45.663Z,21.85
2022-10-13T22:39:14.383Z,19.40
2022-10-13T22:41:42.753Z,19.80
2022-10-13T22:44:10.836Z,19.52
2022-10-13T22:46:39.583Z,19.63
2022-10-13T22:49:11.789Z,19.25
2022-10-13T22:51:39.723Z,19.90
2022-10-13T22:54:07.701Z,19.13
2022-10-13T22:56:35.706Z,19.27
2022-10-13T22:59:06.677Z,20.00
2022-10-13T23:01:34.894Z,18.67
2022-10-13T23:04:03.613Z,19.33
2022-10-13T23:06:33.819Z,20.92
2022-10-13T23:09:05.002Z,19.25
2022-10-13T23:11:34.121Z,18.38
2022-10-13T23:14:03.473Z,19.17
2022-10-13T23:16:32.874Z,18.63
2022-10-13T23:19:01.936Z,19.63
2022-10-13T23:21:31.019Z,19.83
2022-10-13T23:24:04.245Z,18.83
2022-10-13T23:26:33.439Z,18.33
2022-10-13T23:29:03.137Z,18.70
2022-10-13T23:31:31.499Z,19.23
2022-10-13T23:33:59.609Z,18.10
2022-10-13T23:36:30.445Z,18.17
2022-10-13T23:39:05.558Z,18.98
2022-10-13T23:41:37.091Z,18.70
2022-10-13T23:44:05.555Z,19.30
2022-10-13T23:46:33.823Z,18.17
2022-10-13T23:49:01.855Z,18.25
2022-10-13T23:51:30.563Z,18.50
2022-10-13T23:53:59.529Z,18.40
2022-10-13T23:56:27.737Z,19.08
2022-10-13T23:58:55.524Z,18.77
